Agnew, Washington
Current Conditions -  °F | °C
As of 10:38 AM on Monday 20 Oct 2014 (Local Time) from KCLM Reporting Station
Light Rain Light Rain  
Wind Chill: 58°   Ceiling: 900
Heat Index: 58°   Visibility: 10mi
Dew Point: 54°   Wind: 3mph
Humidity: 87%   Direction: 310°NW
Pressure: 29.71"   Gusts: NA
Location:  48.0203°N, 123.478°W
Report Text: KCLM 201738Z AUTO 31003KT 10SM -RA BKN009 OVC015 14/12 A2971 RMK AO2 RAE14B33 CIG 007V013 P0000 T01440122 TSNO $
Loading
Personal Weather Stations






























Interactive Weather Map
Tropical Storm Tracking
New forecast layout! Learn more

10-Day Weather Forecast

Advertisements
Track Severe Weather on mobile